9PS7 weather

W S Lee & Sons Inc Heliport
Duncansville, Pennsylvania, United States

Public forecast

Using degrees Fahrenheit for public forecast. Weather courtesy of forecast.io.

METAR (pilot weather report)

Closest report is Altoona Blair County Airport, 10.3 nm (19.1 km) SSE. Retrieved 2019/05/26 16:38 UTC (0 seconds ago):

KAOO 261638Z AUTO VRB05KT 10SM VCTS FEW034 SCT055 OVC100 21/18 A3005 RMK AO2 PK WND 35031/1609 LTG DSNT S AND SW RAB09E31 TSB03E32 P0010 T02110178

TAF (pilot weather forecast)

Closest forecast is Altoona Blair County Airport, 10.3 nm (19.1 km) SSE. Retrieved 2019/05/26 12:00 UTC (5 hours ago):

TAF KAOO 261158Z 2612/2712 16004KT P6SM SKC FM261500 28010G20KT P6SM VCSH BKN040 FM262100 29007KT 5SM -SHRA BKN040 FM270200 29003KT P6SM OVC250 FM270600 34003KT 5SM BR OVC025